sensor_id;sensor_type;location;lat;lon;timestamp;P1;durP1;ratioP1;P2;durP2;ratioP2
72060;SDS011;59925;52.136;5.420;2023-05-07T00:00:01;6.93;;;5.28;;
72060;SDS011;59925;52.136;5.420;2023-05-07T00:02:28;7.40;;;5.43;;
72060;SDS011;59925;52.136;5.420;2023-05-07T00:04:55;6.75;;;5.20;;
72060;SDS011;59925;52.136;5.420;2023-05-07T00:07:22;7.57;;;5.18;;
72060;SDS011;59925;52.136;5.420;2023-05-07T00:09:49;8.03;;;5.60;;
72060;SDS011;59925;52.136;5.420;2023-05-07T00:12:15;7.97;;;5.28;;
72060;SDS011;59925;52.136;5.420;2023-05-07T00:14:42;6.25;;;5.40;;
72060;SDS011;59925;52.136;5.420;2023-05-07T00:17:08;6.13;;;4.75;;
72060;SDS011;59925;52.136;5.420;2023-05-07T00:19:35;8.63;;;4.80;;
72060;SDS011;59925;52.136;5.420;2023-05-07T00:22:01;8.10;;;5.13;;
72060;SDS011;59925;52.136;5.420;2023-05-07T00:24:27;7.32;;;5.03;;
72060;SDS011;59925;52.136;5.420;2023-05-07T00:26:54;6.50;;;5.32;;
72060;SDS011;59925;52.136;5.420;2023-05-07T00:29:21;7.38;;;5.32;;
72060;SDS011;59925;52.136;5.420;2023-05-07T00:31:48;9.55;;;5.95;;
72060;SDS011;59925;52.136;5.420;2023-05-07T00:34:15;6.10;;;5.47;;
72060;SDS011;59925;52.136;5.420;2023-05-07T00:36:42;6.80;;;5.50;;
72060;SDS011;59925;52.136;5.420;2023-05-07T00:39:08;6.85;;;5.60;;
72060;SDS011;59925;52.136;5.420;2023-05-07T00:41:34;7.43;;;5.60;;
72060;SDS011;59925;52.136;5.420;2023-05-07T00:44:01;6.68;;;5.85;;
72060;SDS011;59925;52.136;5.420;2023-05-07T00:46:28;7.00;;;5.77;;
72060;SDS011;59925;52.136;5.420;2023-05-07T00:48:57;6.82;;;5.07;;
72060;SDS011;59925;52.136;5.420;2023-05-07T00:51:24;8.13;;;5.93;;
72060;SDS011;59925;52.136;5.420;2023-05-07T00:53:53;9.13;;;5.88;;
72060;SDS011;59925;52.136;5.420;2023-05-07T00:56:22;7.03;;;6.05;;
72060;SDS011;59925;52.136;5.420;2023-05-07T00:58:49;6.87;;;5.20;;
72060;SDS011;59925;52.136;5.420;2023-05-07T01:01:16;8.23;;;5.60;;
72060;SDS011;59925;52.136;5.420;2023-05-07T01:03:43;7.70;;;5.60;;
72060;SDS011;59925;52.136;5.420;2023-05-07T01:06:10;6.97;;;5.20;;
72060;SDS011;59925;52.136;5.420;2023-05-07T01:08:39;7.00;;;5.05;;
72060;SDS011;59925;52.136;5.420;2023-05-07T01:11:07;7.43;;;5.50;;
72060;SDS011;59925;52.136;5.420;2023-05-07T01:13:34;7.63;;;5.20;;
72060;SDS011;59925;52.136;5.420;2023-05-07T01:16:02;6.25;;;4.82;;
72060;SDS011;59925;52.136;5.420;2023-05-07T01:18:29;6.53;;;4.82;;
72060;SDS011;59925;52.136;5.420;2023-05-07T01:20:58;7.47;;;5.25;;
72060;SDS011;59925;52.136;5.420;2023-05-07T01:23:26;8.97;;;5.33;;
72060;SDS011;59925;52.136;5.420;2023-05-07T01:25:54;9.38;;;5.55;;
72060;SDS011;59925;52.136;5.420;2023-05-07T01:28:21;7.43;;;5.47;;
72060;SDS011;59925;52.136;5.420;2023-05-07T01:30:49;7.93;;;5.47;;
72060;SDS011;59925;52.136;5.420;2023-05-07T01:33:20;8.20;;;5.88;;
72060;SDS011;59925;52.136;5.420;2023-05-07T01:35:48;6.33;;;5.50;;
72060;SDS011;59925;52.136;5.420;2023-05-07T01:38:19;10.10;;;5.47;;
72060;SDS011;59925;52.136;5.420;2023-05-07T01:40:48;7.60;;;6.00;;
72060;SDS011;59925;52.136;5.420;2023-05-07T01:43:15;8.00;;;5.72;;
72060;SDS011;59925;52.136;5.420;2023-05-07T01:45:42;6.40;;;5.50;;
72060;SDS011;59925;52.136;5.420;2023-05-07T01:48:11;6.67;;;5.13;;
72060;SDS011;59925;52.136;5.420;2023-05-07T01:50:39;6.65;;;5.70;;
72060;SDS011;59925;52.136;5.420;2023-05-07T01:53:06;7.35;;;5.63;;
72060;SDS011;59925;52.136;5.420;2023-05-07T01:55:32;7.97;;;5.90;;
72060;SDS011;59925;52.136;5.420;2023-05-07T01:57:59;7.50;;;5.50;;
72060;SDS011;59925;52.136;5.420;2023-05-07T02:00:25;6.13;;;5.03;;
72060;SDS011;59925;52.136;5.420;2023-05-07T02:02:52;6.88;;;5.30;;
72060;SDS011;59925;52.136;5.420;2023-05-07T02:05:19;5.43;;;4.93;;
72060;SDS011;59925;52.136;5.420;2023-05-07T02:07:46;7.95;;;5.30;;
72060;SDS011;59925;52.136;5.420;2023-05-07T02:10:12;8.70;;;5.22;;
72060;SDS011;59925;52.136;5.420;2023-05-07T02:12:39;7.33;;;5.93;;
72060;SDS011;59925;52.136;5.420;2023-05-07T02:15:05;6.32;;;5.72;;
72060;SDS011;59925;52.136;5.420;2023-05-07T02:17:32;8.43;;;6.88;;
72060;SDS011;59925;52.136;5.420;2023-05-07T02:19:59;6.40;;;5.78;;
72060;SDS011;59925;52.136;5.420;2023-05-07T02:22:26;8.40;;;6.65;;
72060;SDS011;59925;52.136;5.420;2023-05-07T02:24:52;7.07;;;5.57;;
72060;SDS011;59925;52.136;5.420;2023-05-07T02:27:18;9.57;;;6.40;;
72060;SDS011;59925;52.136;5.420;2023-05-07T02:29:45;7.03;;;6.32;;
72060;SDS011;59925;52.136;5.420;2023-05-07T02:32:12;7.35;;;6.28;;
72060;SDS011;59925;52.136;5.420;2023-05-07T02:34:38;9.18;;;6.07;;
72060;SDS011;59925;52.136;5.420;2023-05-07T02:37:05;7.90;;;5.77;;
72060;SDS011;59925;52.136;5.420;2023-05-07T02:39:32;7.15;;;5.82;;
72060;SDS011;59925;52.136;5.420;2023-05-07T02:41:58;7.15;;;6.07;;
72060;SDS011;59925;52.136;5.420;2023-05-07T02:44:24;8.73;;;6.80;;
72060;SDS011;59925;52.136;5.420;2023-05-07T02:46:51;6.90;;;6.00;;
72060;SDS011;59925;52.136;5.420;2023-05-07T02:49:18;6.77;;;5.73;;
72060;SDS011;59925;52.136;5.420;2023-05-07T02:51:44;8.40;;;5.85;;
72060;SDS011;59925;52.136;5.420;2023-05-07T02:54:11;7.47;;;5.90;;
72060;SDS011;59925;52.136;5.420;2023-05-07T02:56:37;6.43;;;5.75;;
72060;SDS011;59925;52.136;5.420;2023-05-07T02:59:04;9.00;;;6.45;;
72060;SDS011;59925;52.136;5.420;2023-05-07T03:01:30;7.03;;;6.13;;
72060;SDS011;59925;52.136;5.420;2023-05-07T03:03:57;9.85;;;6.93;;
72060;SDS011;59925;52.136;5.420;2023-05-07T03:06:23;10.95;;;6.93;;
72060;SDS011;59925;52.136;5.420;2023-05-07T03:08:50;9.07;;;7.00;;
72060;SDS011;59925;52.136;5.420;2023-05-07T03:11:16;11.00;;;7.13;;
72060;SDS011;59925;52.136;5.420;2023-05-07T03:13:43;8.47;;;6.27;;
72060;SDS011;59925;52.136;5.420;2023-05-07T03:16:09;7.10;;;6.35;;
72060;SDS011;59925;52.136;5.420;2023-05-07T03:18:36;7.15;;;6.05;;
72060;SDS011;59925;52.136;5.420;2023-05-07T03:21:02;9.57;;;6.90;;
72060;SDS011;59925;52.136;5.420;2023-05-07T03:23:29;10.20;;;6.32;;
72060;SDS011;59925;52.136;5.420;2023-05-07T03:25:55;9.03;;;6.10;;
72060;SDS011;59925;52.136;5.420;2023-05-07T03:28:21;9.85;;;6.93;;
72060;SDS011;59925;52.136;5.420;2023-05-07T03:30:48;7.95;;;6.60;;
72060;SDS011;59925;52.136;5.420;2023-05-07T03:33:15;6.85;;;6.15;;
72060;SDS011;59925;52.136;5.420;2023-05-07T03:35:41;9.32;;;7.20;;
72060;SDS011;59925;52.136;5.420;2023-05-07T03:38:08;6.80;;;5.90;;
72060;SDS011;59925;52.136;5.420;2023-05-07T03:40:34;10.65;;;6.72;;
72060;SDS011;59925;52.136;5.420;2023-05-07T03:43:01;8.07;;;5.95;;
72060;SDS011;59925;52.136;5.420;2023-05-07T03:45:27;9.80;;;6.93;;
72060;SDS011;59925;52.136;5.420;2023-05-07T03:47:54;8.05;;;6.50;;
72060;SDS011;59925;52.136;5.420;2023-05-07T03:50:20;7.90;;;6.50;;
72060;SDS011;59925;52.136;5.420;2023-05-07T03:52:47;7.93;;;6.53;;
72060;SDS011;59925;52.136;5.420;2023-05-07T03:55:13;7.72;;;6.25;;
72060;SDS011;59925;52.136;5.420;2023-05-07T03:57:40;8.00;;;6.40;;
72060;SDS011;59925;52.136;5.420;2023-05-07T04:00:06;7.93;;;6.45;;
72060;SDS011;59925;52.136;5.420;2023-05-07T04:02:35;9.57;;;6.70;;
72060;SDS011;59925;52.136;5.420;2023-05-07T04:05:01;9.18;;;6.75;;
72060;SDS011;59925;52.136;5.420;2023-05-07T04:07:28;9.02;;;6.35;;
72060;SDS011;59925;52.136;5.420;2023-05-07T04:09:54;8.40;;;6.47;;
72060;SDS011;59925;52.136;5.420;2023-05-07T04:12:20;9.13;;;7.05;;
72060;SDS011;59925;52.136;5.420;2023-05-07T04:14:47;10.57;;;7.70;;
72060;SDS011;59925;52.136;5.420;2023-05-07T04:17:13;10.27;;;7.13;;
72060;SDS011;59925;52.136;5.420;2023-05-07T04:19:40;10.10;;;7.35;;
72060;SDS011;59925;52.136;5.420;2023-05-07T04:22:11;9.65;;;7.38;;
72060;SDS011;59925;52.136;5.420;2023-05-07T04:24:38;8.38;;;7.38;;
72060;SDS011;59925;52.136;5.420;2023-05-07T04:27:04;9.37;;;7.87;;
72060;SDS011;59925;52.136;5.420;2023-05-07T04:29:32;9.65;;;6.85;;
72060;SDS011;59925;52.136;5.420;2023-05-07T04:31:58;8.82;;;7.20;;
72060;SDS011;59925;52.136;5.420;2023-05-07T04:34:25;8.70;;;7.07;;
72060;SDS011;59925;52.136;5.420;2023-05-07T04:36:51;9.48;;;6.95;;
72060;SDS011;59925;52.136;5.420;2023-05-07T04:39:18;8.83;;;6.90;;
72060;SDS011;59925;52.136;5.420;2023-05-07T04:41:44;10.98;;;8.02;;
72060;SDS011;59925;52.136;5.420;2023-05-07T04:44:11;11.23;;;7.85;;
72060;SDS011;59925;52.136;5.420;2023-05-07T04:46:38;10.32;;;7.85;;
72060;SDS011;59925;52.136;5.420;2023-05-07T04:49:04;10.70;;;7.82;;
72060;SDS011;59925;52.136;5.420;2023-05-07T04:51:31;12.47;;;8.70;;
72060;SDS011;59925;52.136;5.420;2023-05-07T04:53:59;10.55;;;8.07;;
72060;SDS011;59925;52.136;5.420;2023-05-07T04:56:27;10.73;;;7.70;;
72060;SDS011;59925;52.136;5.420;2023-05-07T04:58:54;11.32;;;8.27;;
72060;SDS011;59925;52.136;5.420;2023-05-07T05:01:20;10.75;;;7.90;;
72060;SDS011;59925;52.136;5.420;2023-05-07T05:03:47;10.97;;;7.87;;
72060;SDS011;59925;52.136;5.420;2023-05-07T05:06:13;11.05;;;8.02;;
72060;SDS011;59925;52.136;5.420;2023-05-07T05:08:40;12.15;;;8.43;;
72060;SDS011;59925;52.136;5.420;2023-05-07T05:11:06;12.02;;;8.15;;
72060;SDS011;59925;52.136;5.420;2023-05-07T05:13:33;10.50;;;8.63;;
72060;SDS011;59925;52.136;5.420;2023-05-07T05:15:59;11.03;;;7.60;;
72060;SDS011;59925;52.136;5.420;2023-05-07T05:18:26;9.82;;;7.95;;
72060;SDS011;59925;52.136;5.420;2023-05-07T05:20:52;11.50;;;8.15;;
72060;SDS011;59925;52.136;5.420;2023-05-07T05:23:19;9.80;;;7.68;;
72060;SDS011;59925;52.136;5.420;2023-05-07T05:25:46;11.63;;;9.32;;
72060;SDS011;59925;52.136;5.420;2023-05-07T05:28:12;14.70;;;9.00;;
72060;SDS011;59925;52.136;5.420;2023-05-07T05:30:39;12.38;;;8.80;;
72060;SDS011;59925;52.136;5.420;2023-05-07T05:33:05;11.85;;;8.95;;
72060;SDS011;59925;52.136;5.420;2023-05-07T05:35:32;10.60;;;9.00;;
72060;SDS011;59925;52.136;5.420;2023-05-07T05:37:58;14.15;;;8.82;;
72060;SDS011;59925;52.136;5.420;2023-05-07T05:40:25;13.93;;;9.53;;
72060;SDS011;59925;52.136;5.420;2023-05-07T05:42:51;11.48;;;8.98;;
72060;SDS011;59925;52.136;5.420;2023-05-07T05:45:18;11.57;;;8.98;;
72060;SDS011;59925;52.136;5.420;2023-05-07T05:47:44;12.82;;;9.55;;
72060;SDS011;59925;52.136;5.420;2023-05-07T05:50:11;11.88;;;8.45;;
72060;SDS011;59925;52.136;5.420;2023-05-07T05:52:37;11.33;;;9.17;;
72060;SDS011;59925;52.136;5.420;2023-05-07T05:55:04;11.75;;;9.00;;
72060;SDS011;59925;52.136;5.420;2023-05-07T05:57:31;12.00;;;8.32;;
72060;SDS011;59925;52.136;5.420;2023-05-07T05:59:58;11.63;;;9.63;;
72060;SDS011;59925;52.136;5.420;2023-05-07T06:02:24;12.45;;;8.73;;
72060;SDS011;59925;52.136;5.420;2023-05-07T06:04:51;11.07;;;9.00;;
72060;SDS011;59925;52.136;5.420;2023-05-07T06:07:17;12.23;;;9.93;;
72060;SDS011;59925;52.136;5.420;2023-05-07T06:09:43;14.20;;;9.70;;
72060;SDS011;59925;52.136;5.420;2023-05-07T06:12:10;13.73;;;9.60;;
72060;SDS011;59925;52.136;5.420;2023-05-07T06:14:37;12.85;;;10.05;;
72060;SDS011;59925;52.136;5.420;2023-05-07T06:17:04;13.23;;;9.70;;
72060;SDS011;59925;52.136;5.420;2023-05-07T06:19:31;13.82;;;9.85;;
72060;SDS011;59925;52.136;5.420;2023-05-07T06:21:57;13.05;;;10.15;;
72060;SDS011;59925;52.136;5.420;2023-05-07T06:24:24;13.25;;;10.25;;
72060;SDS011;59925;52.136;5.420;2023-05-07T06:26:50;14.68;;;10.93;;
72060;SDS011;59925;52.136;5.420;2023-05-07T06:29:17;14.87;;;11.13;;
72060;SDS011;59925;52.136;5.420;2023-05-07T06:31:44;13.63;;;10.75;;
72060;SDS011;59925;52.136;5.420;2023-05-07T06:34:10;15.10;;;11.15;;
72060;SDS011;59925;52.136;5.420;2023-05-07T06:36:41;14.57;;;10.93;;
72060;SDS011;59925;52.136;5.420;2023-05-07T06:39:07;13.80;;;10.52;;
72060;SDS011;59925;52.136;5.420;2023-05-07T06:41:34;13.47;;;10.40;;
72060;SDS011;59925;52.136;5.420;2023-05-07T06:44:02;15.32;;;10.50;;
72060;SDS011;59925;52.136;5.420;2023-05-07T06:46:29;14.07;;;10.85;;
72060;SDS011;59925;52.136;5.420;2023-05-07T06:48:55;13.95;;;10.73;;
72060;SDS011;59925;52.136;5.420;2023-05-07T06:51:22;13.88;;;10.60;;
72060;SDS011;59925;52.136;5.420;2023-05-07T06:53:49;16.47;;;10.13;;
72060;SDS011;59925;52.136;5.420;2023-05-07T06:56:15;13.75;;;10.05;;
72060;SDS011;59925;52.136;5.420;2023-05-07T06:58:42;15.38;;;11.02;;
72060;SDS011;59925;52.136;5.420;2023-05-07T07:01:08;13.75;;;10.77;;
72060;SDS011;59925;52.136;5.420;2023-05-07T07:03:35;16.00;;;10.35;;
72060;SDS011;59925;52.136;5.420;2023-05-07T07:06:01;15.47;;;11.37;;
72060;SDS011;59925;52.136;5.420;2023-05-07T07:08:29;14.30;;;11.68;;
72060;SDS011;59925;52.136;5.420;2023-05-07T07:10:55;15.52;;;11.60;;
72060;SDS011;59925;52.136;5.420;2023-05-07T07:13:22;15.73;;;11.77;;
72060;SDS011;59925;52.136;5.420;2023-05-07T07:15:48;14.73;;;10.85;;
72060;SDS011;59925;52.136;5.420;2023-05-07T07:18:15;15.90;;;11.43;;
72060;SDS011;59925;52.136;5.420;2023-05-07T07:20:42;14.60;;;10.80;;
72060;SDS011;59925;52.136;5.420;2023-05-07T07:23:10;13.85;;;10.60;;
72060;SDS011;59925;52.136;5.420;2023-05-07T07:25:37;13.85;;;11.60;;
72060;SDS011;59925;52.136;5.420;2023-05-07T07:28:03;14.30;;;10.98;;
72060;SDS011;59925;52.136;5.420;2023-05-07T07:30:30;16.10;;;10.47;;
72060;SDS011;59925;52.136;5.420;2023-05-07T07:32:56;15.05;;;10.65;;
72060;SDS011;59925;52.136;5.420;2023-05-07T07:35:28;13.68;;;10.52;;
72060;SDS011;59925;52.136;5.420;2023-05-07T07:37:55;14.75;;;10.40;;
72060;SDS011;59925;52.136;5.420;2023-05-07T07:40:22;13.98;;;10.85;;
72060;SDS011;59925;52.136;5.420;2023-05-07T07:42:48;13.87;;;10.77;;
72060;SDS011;59925;52.136;5.420;2023-05-07T07:45:15;14.02;;;10.50;;
72060;SDS011;59925;52.136;5.420;2023-05-07T07:47:41;14.02;;;9.93;;
72060;SDS011;59925;52.136;5.420;2023-05-07T07:50:08;14.48;;;10.77;;
72060;SDS011;59925;52.136;5.420;2023-05-07T07:52:35;11.65;;;10.40;;
72060;SDS011;59925;52.136;5.420;2023-05-07T07:55:02;14.07;;;10.90;;
72060;SDS011;59925;52.136;5.420;2023-05-07T07:57:29;15.60;;;10.23;;
72060;SDS011;59925;52.136;5.420;2023-05-07T07:59:55;17.13;;;10.77;;
72060;SDS011;59925;52.136;5.420;2023-05-07T08:02:22;13.85;;;10.55;;
72060;SDS011;59925;52.136;5.420;2023-05-07T08:04:49;12.18;;;10.40;;
72060;SDS011;59925;52.136;5.420;2023-05-07T08:07:15;12.37;;;10.67;;
72060;SDS011;59925;52.136;5.420;2023-05-07T08:09:44;12.98;;;10.60;;
72060;SDS011;59925;52.136;5.420;2023-05-07T08:12:11;13.70;;;10.38;;
72060;SDS011;59925;52.136;5.420;2023-05-07T08:14:37;13.55;;;11.25;;
72060;SDS011;59925;52.136;5.420;2023-05-07T08:17:04;13.35;;;10.93;;
72060;SDS011;59925;52.136;5.420;2023-05-07T08:19:30;12.17;;;10.63;;
72060;SDS011;59925;52.136;5.420;2023-05-07T08:21:57;14.13;;;11.50;;
72060;SDS011;59925;52.136;5.420;2023-05-07T08:24:23;13.68;;;11.40;;
72060;SDS011;59925;52.136;5.420;2023-05-07T08:26:50;14.07;;;11.80;;
72060;SDS011;59925;52.136;5.420;2023-05-07T08:29:16;16.40;;;12.98;;
72060;SDS011;59925;52.136;5.420;2023-05-07T08:31:43;14.97;;;12.77;;
72060;SDS011;59925;52.136;5.420;2023-05-07T08:34:10;15.45;;;12.02;;
72060;SDS011;59925;52.136;5.420;2023-05-07T08:36:36;15.95;;;12.40;;
72060;SDS011;59925;52.136;5.420;2023-05-07T08:39:02;15.05;;;12.95;;
72060;SDS011;59925;52.136;5.420;2023-05-07T08:41:29;14.55;;;12.75;;
72060;SDS011;59925;52.136;5.420;2023-05-07T08:43:57;16.43;;;12.87;;
72060;SDS011;59925;52.136;5.420;2023-05-07T08:46:26;16.02;;;12.98;;
72060;SDS011;59925;52.136;5.420;2023-05-07T08:48:57;13.38;;;11.43;;
72060;SDS011;59925;52.136;5.420;2023-05-07T08:51:24;17.50;;;13.25;;
72060;SDS011;59925;52.136;5.420;2023-05-07T08:53:51;17.17;;;12.73;;
72060;SDS011;59925;52.136;5.420;2023-05-07T08:56:17;19.70;;;13.40;;
72060;SDS011;59925;52.136;5.420;2023-05-07T08:58:48;15.55;;;12.30;;
72060;SDS011;59925;52.136;5.420;2023-05-07T09:01:15;16.45;;;12.88;;
72060;SDS011;59925;52.136;5.420;2023-05-07T09:03:46;16.38;;;12.98;;
72060;SDS011;59925;52.136;5.420;2023-05-07T09:06:13;17.20;;;12.75;;
72060;SDS011;59925;52.136;5.420;2023-05-07T09:08:40;17.43;;;13.43;;
72060;SDS011;59925;52.136;5.420;2023-05-07T09:11:07;17.63;;;12.60;;
72060;SDS011;59925;52.136;5.420;2023-05-07T09:13:33;19.98;;;14.68;;
72060;SDS011;59925;52.136;5.420;2023-05-07T09:16:09;18.40;;;13.82;;
72060;SDS011;59925;52.136;5.420;2023-05-07T09:18:43;15.88;;;13.32;;
72060;SDS011;59925;52.136;5.420;2023-05-07T09:21:11;16.80;;;12.67;;
72060;SDS011;59925;52.136;5.420;2023-05-07T09:23:41;18.98;;;13.60;;
72060;SDS011;59925;52.136;5.420;2023-05-07T09:26:08;16.60;;;12.90;;
72060;SDS011;59925;52.136;5.420;2023-05-07T09:28:40;18.30;;;13.82;;
72060;SDS011;59925;52.136;5.420;2023-05-07T09:31:08;16.90;;;12.93;;
72060;SDS011;59925;52.136;5.420;2023-05-07T09:33:35;16.27;;;12.93;;
72060;SDS011;59925;52.136;5.420;2023-05-07T09:36:03;15.90;;;12.75;;
72060;SDS011;59925;52.136;5.420;2023-05-07T09:38:34;16.77;;;12.60;;
72060;SDS011;59925;52.136;5.420;2023-05-07T09:41:10;17.20;;;13.13;;
72060;SDS011;59925;52.136;5.420;2023-05-07T09:43:38;15.38;;;11.20;;
72060;SDS011;59925;52.136;5.420;2023-05-07T09:46:07;13.30;;;10.97;;
72060;SDS011;59925;52.136;5.420;2023-05-07T09:48:41;13.00;;;10.82;;
72060;SDS011;59925;52.136;5.420;2023-05-07T09:51:15;14.73;;;11.10;;
72060;SDS011;59925;52.136;5.420;2023-05-07T09:53:57;13.43;;;11.30;;
72060;SDS011;59925;52.136;5.420;2023-05-07T09:56:26;13.70;;;10.80;;
72060;SDS011;59925;52.136;5.420;2023-05-07T09:58:54;16.23;;;10.80;;
72060;SDS011;59925;52.136;5.420;2023-05-07T10:01:23;13.55;;;11.23;;
72060;SDS011;59925;52.136;5.420;2023-05-07T10:03:51;14.75;;;10.93;;
72060;SDS011;59925;52.136;5.420;2023-05-07T10:06:19;15.38;;;11.98;;
72060;SDS011;59925;52.136;5.420;2023-05-07T10:08:46;12.85;;;10.98;;
72060;SDS011;59925;52.136;5.420;2023-05-07T10:11:14;14.00;;;10.80;;
72060;SDS011;59925;52.136;5.420;2023-05-07T10:13:42;14.02;;;11.23;;
72060;SDS011;59925;52.136;5.420;2023-05-07T10:16:09;13.68;;;11.20;;
72060;SDS011;59925;52.136;5.420;2023-05-07T10:18:36;15.15;;;11.00;;
72060;SDS011;59925;52.136;5.420;2023-05-07T10:21:19;15.43;;;11.90;;
72060;SDS011;59925;52.136;5.420;2023-05-07T10:23:49;18.43;;;12.00;;
72060;SDS011;59925;52.136;5.420;2023-05-07T10:28:47;15.18;;;12.68;;
72060;SDS011;59925;52.136;5.420;2023-05-07T10:34:01;14.40;;;11.60;;
72060;SDS011;59925;52.136;5.420;2023-05-07T10:36:34;16.17;;;11.57;;
72060;SDS011;59925;52.136;5.420;2023-05-07T10:39:03;18.25;;;11.05;;
72060;SDS011;59925;52.136;5.420;2023-05-07T10:41:32;16.55;;;11.82;;
72060;SDS011;59925;52.136;5.420;2023-05-07T10:43:58;15.00;;;11.40;;
72060;SDS011;59925;52.136;5.420;2023-05-07T10:46:28;15.45;;;11.05;;
72060;SDS011;59925;52.136;5.420;2023-05-07T10:51:32;13.60;;;10.88;;
72060;SDS011;59925;52.136;5.420;2023-05-07T10:56:38;13.18;;;10.32;;
72060;SDS011;59925;52.136;5.420;2023-05-07T10:59:29;14.88;;;10.55;;
72060;SDS011;59925;52.136;5.420;2023-05-07T11:04:25;14.07;;;10.45;;
72060;SDS011;59925;52.136;5.420;2023-05-07T11:15:06;14.13;;;11.03;;
72060;SDS011;59925;52.136;5.420;2023-05-07T11:17:34;15.50;;;12.38;;
72060;SDS011;59925;52.136;5.420;2023-05-07T11:20:18;15.85;;;11.57;;
72060;SDS011;59925;52.136;5.420;2023-05-07T11:22:45;18.65;;;12.43;;
72060;SDS011;59925;52.136;5.420;2023-05-07T11:25:16;14.05;;;11.40;;
72060;SDS011;59925;52.136;5.420;2023-05-07T11:27:45;15.43;;;11.93;;
72060;SDS011;59925;52.136;5.420;2023-05-07T11:30:20;14.85;;;11.68;;
72060;SDS011;59925;52.136;5.420;2023-05-07T11:32:47;16.10;;;12.35;;
72060;SDS011;59925;52.136;5.420;2023-05-07T11:35:15;13.85;;;10.95;;
72060;SDS011;59925;52.136;5.420;2023-05-07T11:37:41;15.43;;;12.27;;
72060;SDS011;59925;52.136;5.420;2023-05-07T11:40:11;15.63;;;13.00;;
72060;SDS011;59925;52.136;5.420;2023-05-07T11:42:40;16.48;;;12.95;;
72060;SDS011;59925;52.136;5.420;2023-05-07T11:45:09;14.18;;;12.35;;
72060;SDS011;59925;52.136;5.420;2023-05-07T11:47:36;15.00;;;12.05;;
72060;SDS011;59925;52.136;5.420;2023-05-07T11:50:03;16.30;;;12.20;;
72060;SDS011;59925;52.136;5.420;2023-05-07T11:52:32;15.43;;;12.83;;
72060;SDS011;59925;52.136;5.420;2023-05-07T11:54:59;14.82;;;12.10;;
72060;SDS011;59925;52.136;5.420;2023-05-07T11:57:26;15.60;;;12.60;;
72060;SDS011;59925;52.136;5.420;2023-05-07T11:59:57;15.43;;;13.60;;
72060;SDS011;59925;52.136;5.420;2023-05-07T12:02:25;15.90;;;12.50;;
72060;SDS011;59925;52.136;5.420;2023-05-07T12:04:52;15.80;;;12.43;;
72060;SDS011;59925;52.136;5.420;2023-05-07T12:07:19;14.43;;;12.10;;
72060;SDS011;59925;52.136;5.420;2023-05-07T12:09:46;14.60;;;12.65;;
72060;SDS011;59925;52.136;5.420;2023-05-07T12:12:13;15.15;;;13.07;;
72060;SDS011;59925;52.136;5.420;2023-05-07T12:14:44;16.63;;;12.10;;
72060;SDS011;59925;52.136;5.420;2023-05-07T12:17:12;19.17;;;12.10;;
72060;SDS011;59925;52.136;5.420;2023-05-07T12:19:40;14.40;;;12.10;;
72060;SDS011;59925;52.136;5.420;2023-05-07T12:22:09;15.50;;;12.40;;
72060;SDS011;59925;52.136;5.420;2023-05-07T12:27:25;14.40;;;12.20;;
72060;SDS011;59925;52.136;5.420;2023-05-07T12:29:52;13.70;;;12.10;;
72060;SDS011;59925;52.136;5.420;2023-05-07T12:32:19;12.88;;;10.73;;
72060;SDS011;59925;52.136;5.420;2023-05-07T12:34:50;13.38;;;11.40;;
72060;SDS011;59925;52.136;5.420;2023-05-07T12:37:22;16.00;;;12.38;;
72060;SDS011;59925;52.136;5.420;2023-05-07T12:40:03;14.48;;;11.95;;
72060;SDS011;59925;52.136;5.420;2023-05-07T12:42:36;14.40;;;11.90;;
72060;SDS011;59925;52.136;5.420;2023-05-07T12:45:08;13.48;;;12.07;;
72060;SDS011;59925;52.136;5.420;2023-05-07T12:47:39;13.93;;;11.63;;
72060;SDS011;59925;52.136;5.420;2023-05-07T12:50:10;13.30;;;11.18;;
72060;SDS011;59925;52.136;5.420;2023-05-07T12:52:36;12.38;;;9.90;;
72060;SDS011;59925;52.136;5.420;2023-05-07T12:55:07;10.70;;;8.97;;
72060;SDS011;59925;52.136;5.420;2023-05-07T12:57:38;10.45;;;8.13;;
72060;SDS011;59925;52.136;5.420;2023-05-07T13:00:06;10.18;;;7.40;;
72060;SDS011;59925;52.136;5.420;2023-05-07T13:02:33;11.57;;;7.10;;
72060;SDS011;59925;52.136;5.420;2023-05-07T13:05:01;8.43;;;6.32;;
72060;SDS011;59925;52.136;5.420;2023-05-07T13:07:27;9.83;;;7.47;;
72060;SDS011;59925;52.136;5.420;2023-05-07T13:09:55;8.65;;;7.43;;
72060;SDS011;59925;52.136;5.420;2023-05-07T13:12:22;12.18;;;8.90;;
72060;SDS011;59925;52.136;5.420;2023-05-07T13:14:48;10.20;;;8.82;;
72060;SDS011;59925;52.136;5.420;2023-05-07T13:17:15;11.75;;;8.05;;
72060;SDS011;59925;52.136;5.420;2023-05-07T13:19:41;9.97;;;7.87;;
72060;SDS011;59925;52.136;5.420;2023-05-07T13:22:08;11.95;;;8.82;;
72060;SDS011;59925;52.136;5.420;2023-05-07T13:24:34;10.20;;;8.18;;
72060;SDS011;59925;52.136;5.420;2023-05-07T13:27:01;9.23;;;8.25;;
72060;SDS011;59925;52.136;5.420;2023-05-07T13:29:27;13.20;;;9.77;;
72060;SDS011;59925;52.136;5.420;2023-05-07T13:31:58;12.33;;;9.43;;
72060;SDS011;59925;52.136;5.420;2023-05-07T13:34:25;13.85;;;9.55;;
72060;SDS011;59925;52.136;5.420;2023-05-07T13:36:51;13.05;;;9.90;;
72060;SDS011;59925;52.136;5.420;2023-05-07T13:39:18;12.77;;;9.77;;
72060;SDS011;59925;52.136;5.420;2023-05-07T13:41:44;12.13;;;10.20;;
72060;SDS011;59925;52.136;5.420;2023-05-07T13:44:11;13.07;;;10.13;;
72060;SDS011;59925;52.136;5.420;2023-05-07T13:46:37;11.10;;;9.65;;
72060;SDS011;59925;52.136;5.420;2023-05-07T13:49:04;10.75;;;9.20;;
72060;SDS011;59925;52.136;5.420;2023-05-07T13:51:30;11.77;;;9.75;;
72060;SDS011;59925;52.136;5.420;2023-05-07T13:53:57;12.23;;;10.07;;
72060;SDS011;59925;52.136;5.420;2023-05-07T13:56:24;14.90;;;10.60;;
72060;SDS011;59925;52.136;5.420;2023-05-07T13:58:51;13.13;;;10.63;;
72060;SDS011;59925;52.136;5.420;2023-05-07T14:01:26;13.88;;;10.60;;
72060;SDS011;59925;52.136;5.420;2023-05-07T14:03:53;13.70;;;11.40;;
72060;SDS011;59925;52.136;5.420;2023-05-07T14:06:20;15.20;;;10.70;;
72060;SDS011;59925;52.136;5.420;2023-05-07T14:08:46;13.90;;;10.40;;
72060;SDS011;59925;52.136;5.420;2023-05-07T14:11:12;12.75;;;10.40;;
72060;SDS011;59925;52.136;5.420;2023-05-07T14:13:39;11.85;;;10.02;;
72060;SDS011;59925;52.136;5.420;2023-05-07T14:16:06;12.90;;;10.73;;
72060;SDS011;59925;52.136;5.420;2023-05-07T14:18:32;12.75;;;10.13;;
72060;SDS011;59925;52.136;5.420;2023-05-07T14:21:00;12.77;;;10.10;;
72060;SDS011;59925;52.136;5.420;2023-05-07T14:23:26;12.13;;;10.65;;
72060;SDS011;59925;52.136;5.420;2023-05-07T14:25:53;13.70;;;10.85;;
72060;SDS011;59925;52.136;5.420;2023-05-07T14:28:20;15.23;;;10.93;;
72060;SDS011;59925;52.136;5.420;2023-05-07T14:30:47;13.07;;;10.65;;
72060;SDS011;59925;52.136;5.420;2023-05-07T14:33:13;11.87;;;10.10;;
72060;SDS011;59925;52.136;5.420;2023-05-07T14:35:40;15.48;;;11.30;;
72060;SDS011;59925;52.136;5.420;2023-05-07T14:38:06;16.00;;;10.68;;
72060;SDS011;59925;52.136;5.420;2023-05-07T14:40:33;14.23;;;10.20;;
72060;SDS011;59925;52.136;5.420;2023-05-07T14:42:59;19.60;;;11.02;;
72060;SDS011;59925;52.136;5.420;2023-05-07T14:45:26;12.07;;;9.53;;
72060;SDS011;59925;52.136;5.420;2023-05-07T14:47:52;14.07;;;10.23;;
72060;SDS011;59925;52.136;5.420;2023-05-07T14:50:19;12.38;;;9.07;;
72060;SDS011;59925;52.136;5.420;2023-05-07T14:52:45;13.38;;;8.85;;
72060;SDS011;59925;52.136;5.420;2023-05-07T14:55:12;10.63;;;8.82;;
72060;SDS011;59925;52.136;5.420;2023-05-07T14:57:39;12.33;;;8.37;;